createdAt,value
2022-11-16T00:02:07.108Z,9.07
2022-11-16T00:04:33.683Z,9.09
2022-11-16T00:07:02.666Z,9.04
2022-11-16T00:09:31.912Z,9.00
2022-11-16T00:12:09.580Z,8.95
2022-11-16T00:14:36.442Z,8.95
2022-11-16T00:17:04.225Z,8.96
2022-11-16T00:19:30.980Z,8.97
2022-11-16T00:21:57.736Z,9.00
2022-11-16T00:24:24.391Z,8.97
2022-11-16T00:26:54.074Z,8.98
2022-11-16T00:29:23.464Z,9.01
2022-11-16T00:31:50.391Z,9.07
2022-11-16T00:34:17.345Z,9.06
2022-11-16T00:36:44.284Z,9.06
2022-11-16T00:39:15.724Z,9.04
2022-11-16T00:41:42.736Z,8.99
2022-11-16T00:44:10.251Z,8.96
2022-11-16T00:46:37.383Z,8.97
2022-11-16T00:49:05.513Z,8.98
2022-11-16T00:51:33.757Z,8.97
2022-11-16T00:54:00.901Z,8.95
2022-11-16T00:56:27.518Z,8.96
2022-11-16T00:58:54.047Z,8.97
2022-11-16T01:01:20.562Z,8.95
2022-11-16T01:03:47.928Z,8.95
2022-11-16T01:06:15.956Z,8.91
2022-11-16T01:08:44.254Z,8.93
2022-11-16T01:11:32.473Z,8.96
2022-11-16T01:13:59.026Z,8.96
2022-11-16T01:16:25.484Z,8.96
2022-11-16T01:18:54.175Z,8.98
2022-11-16T01:21:22.432Z,8.97
2022-11-16T01:23:49.278Z,8.98
2022-11-16T01:26:15.941Z,8.90
2022-11-16T01:28:42.472Z,8.88
2022-11-16T01:31:10.313Z,8.95
2022-11-16T01:33:39.649Z,8.97
2022-11-16T01:36:17.258Z,9.02
2022-11-16T01:38:45.643Z,8.96
2022-11-16T01:41:18.061Z,8.90
2022-11-16T01:43:53.658Z,8.87
2022-11-16T01:46:20.285Z,8.87
2022-11-16T01:48:48.856Z,8.92
2022-11-16T01:51:15.705Z,8.95
2022-11-16T01:53:42.289Z,8.98
2022-11-16T01:56:09.276Z,8.96
2022-11-16T01:58:36.490Z,8.94
2022-11-16T02:01:03.772Z,8.95
2022-11-16T02:03:30.263Z,8.92
2022-11-16T02:06:11.878Z,8.95
2022-11-16T02:09:26.263Z,8.93
2022-11-16T02:11:56.463Z,8.86
2022-11-16T02:14:36.680Z,8.85
2022-11-16T02:17:27.684Z,8.85
2022-11-16T02:20:18.905Z,8.85
2022-11-16T02:22:48.369Z,8.88
2022-11-16T02:25:27.611Z,8.87
2022-11-16T02:28:06.040Z,8.91
2022-11-16T02:30:33.056Z,8.96
2022-11-16T02:33:06.077Z,8.98
2022-11-16T02:35:40.509Z,8.98
2022-11-16T02:38:13.451Z,8.99
2022-11-16T02:40:46.281Z,9.00
2022-11-16T02:43:21.087Z,8.94
2022-11-16T02:45:50.880Z,8.87
2022-11-16T02:48:23.493Z,8.86
2022-11-16T02:50:53.351Z,8.93
2022-11-16T02:53:22.035Z,8.95
2022-11-16T02:55:48.472Z,8.98
2022-11-16T02:58:20.110Z,8.97
2022-11-16T03:01:00.033Z,8.99
2022-11-16T03:03:43.591Z,8.93
2022-11-16T03:06:16.506Z,8.90
2022-11-16T03:08:47.916Z,8.89
2022-11-16T03:11:33.096Z,8.85
2022-11-16T03:14:03.719Z,8.91
2022-11-16T03:16:35.276Z,8.89
2022-11-16T03:19:05.599Z,8.89
2022-11-16T03:21:58.110Z,8.94
2022-11-16T03:24:25.218Z,8.97
2022-11-16T03:27:11.227Z,9.00
2022-11-16T03:29:46.929Z,8.97
2022-11-16T03:32:25.286Z,8.92
2022-11-16T03:34:59.877Z,8.84
2022-11-16T03:37:26.916Z,8.81
2022-11-16T03:39:55.768Z,8.77
2022-11-16T03:42:24.588Z,8.77
2022-11-16T03:44:52.418Z,8.77
2022-11-16T03:47:18.972Z,8.79
2022-11-16T03:49:46.613Z,8.86
2022-11-16T03:52:15.338Z,8.92
2022-11-16T03:54:42.622Z,8.96
2022-11-16T03:57:15.423Z,8.99
2022-11-16T03:59:43.253Z,8.98
2022-11-16T04:02:10.145Z,8.92
2022-11-16T04:04:54.877Z,8.85
2022-11-16T04:07:40.018Z,8.87
2022-11-16T04:10:25.342Z,8.93
2022-11-16T04:13:11.210Z,8.96
2022-11-16T04:15:55.917Z,8.95
2022-11-16T04:18:40.720Z,8.95
2022-11-16T04:21:37.569Z,8.95
2022-11-16T04:24:13.200Z,8.93
2022-11-16T04:27:06.939Z,8.95
2022-11-16T04:29:34.478Z,9.00
2022-11-16T04:32:20.061Z,9.03
2022-11-16T04:35:05.437Z,8.94
2022-11-16T04:37:49.727Z,8.93
2022-11-16T04:40:17.115Z,8.99
2022-11-16T04:42:43.626Z,9.00
2022-11-16T04:45:28.955Z,8.96
2022-11-16T04:47:55.410Z,9.01
2022-11-16T04:50:21.892Z,9.04
2022-11-16T04:52:48.358Z,9.03
2022-11-16T04:55:14.853Z,8.98
2022-11-16T04:57:41.345Z,9.03
2022-11-16T05:00:08.695Z,9.05
2022-11-16T05:02:35.288Z,9.05
2022-11-16T05:05:01.840Z,9.02
2022-11-16T05:07:28.379Z,8.99
2022-11-16T05:09:54.866Z,9.03
2022-11-16T05:12:26.728Z,9.05
2022-11-16T05:14:54.942Z,9.08
2022-11-16T05:17:22.705Z,9.11
2022-11-16T05:20:07.837Z,9.13
2022-11-16T05:22:35.232Z,9.10
2022-11-16T05:25:01.952Z,9.07
2022-11-16T05:27:29.496Z,9.10
2022-11-16T05:29:56.558Z,9.07
2022-11-16T05:32:24.551Z,9.09
2022-11-16T05:34:51.095Z,9.06
2022-11-16T05:37:19.094Z,9.06
2022-11-16T05:39:45.591Z,9.07
2022-11-16T05:42:12.024Z,9.07
2022-11-16T05:44:38.491Z,9.00
2022-11-16T05:47:05.704Z,8.97
2022-11-16T05:49:32.164Z,9.04
2022-11-16T05:51:58.719Z,9.04
2022-11-16T05:54:26.136Z,8.99
2022-11-16T05:56:54.030Z,9.00
2022-11-16T05:59:22.647Z,9.05
2022-11-16T06:01:49.931Z,9.05
2022-11-16T06:04:16.476Z,9.09
2022-11-16T06:06:43.208Z,9.12
2022-11-16T06:09:11.442Z,9.14
2022-11-16T06:11:38.369Z,9.11
2022-11-16T06:14:05.651Z,9.10
2022-11-16T06:16:32.172Z,9.12
2022-11-16T06:18:59.773Z,9.15
2022-11-16T06:21:26.334Z,9.15
2022-11-16T06:23:52.856Z,9.15
2022-11-16T06:26:19.322Z,9.17
2022-11-16T06:28:45.813Z,9.19
2022-11-16T06:31:12.290Z,9.19
2022-11-16T06:33:38.730Z,9.17
2022-11-16T06:36:05.503Z,9.17
2022-11-16T06:38:32.215Z,9.18
2022-11-16T06:40:59.176Z,9.15
2022-11-16T06:43:26.198Z,9.12
2022-11-16T06:45:54.856Z,9.10
2022-11-16T06:48:22.376Z,9.12
2022-11-16T06:50:49.915Z,9.19
2022-11-16T06:53:17.345Z,9.17
2022-11-16T06:55:43.943Z,9.20
2022-11-16T06:58:10.480Z,9.19
2022-11-16T07:00:37.016Z,9.23
2022-11-16T07:03:03.835Z,9.24
2022-11-16T07:05:31.374Z,9.22
2022-11-16T07:07:58.324Z,9.19
2022-11-16T07:10:25.515Z,9.22
2022-11-16T07:12:51.970Z,9.21
2022-11-16T07:15:19.361Z,9.27
2022-11-16T07:17:45.973Z,9.31
2022-11-16T07:20:12.543Z,9.29
2022-11-16T07:22:39.112Z,9.28
2022-11-16T07:25:06.082Z,9.30
2022-11-16T07:27:32.510Z,9.30
2022-11-16T07:29:58.988Z,9.31
2022-11-16T07:32:25.441Z,9.34
2022-11-16T07:34:51.884Z,9.38
2022-11-16T07:37:18.295Z,9.37
2022-11-16T07:39:45.692Z,9.32
2022-11-16T07:42:12.270Z,9.32
2022-11-16T07:44:39.239Z,9.29
2022-11-16T07:47:07.033Z,9.34
2022-11-16T07:49:33.447Z,9.31
2022-11-16T07:51:59.932Z,9.28
2022-11-16T07:54:26.385Z,9.24
2022-11-16T07:56:52.860Z,9.22
2022-11-16T07:59:19.313Z,9.23
2022-11-16T08:01:49.029Z,9.26
2022-11-16T08:04:17.376Z,9.25
2022-11-16T08:06:44.488Z,9.24
2022-11-16T08:09:10.944Z,9.27
2022-11-16T08:11:37.989Z,9.28
2022-11-16T08:14:04.587Z,9.25
2022-11-16T08:16:33.171Z,9.19
2022-11-16T08:19:02.225Z,9.16
2022-11-16T08:21:28.788Z,9.19
2022-11-16T08:23:58.330Z,9.14
2022-11-16T08:26:25.285Z,9.09
2022-11-16T08:28:53.599Z,9.12
2022-11-16T08:31:22.457Z,9.14
2022-11-16T08:33:48.995Z,9.16
2022-11-16T08:36:18.646Z,9.21
2022-11-16T08:38:46.355Z,9.21
2022-11-16T08:41:13.442Z,9.19
2022-11-16T08:43:40.564Z,9.22
2022-11-16T08:46:08.339Z,9.27
2022-11-16T08:48:36.250Z,9.32
2022-11-16T08:51:20.903Z,9.31
2022-11-16T08:53:49.384Z,9.31
2022-11-16T08:56:17.797Z,9.25
2022-11-16T08:58:46.831Z,9.27
2022-11-16T09:01:19.002Z,9.31
2022-11-16T09:03:46.312Z,9.33
2022-11-16T09:06:13.694Z,9.33
2022-11-16T09:08:42.625Z,9.39
2022-11-16T09:11:18.663Z,9.39
2022-11-16T09:13:46.632Z,9.43
2022-11-16T09:16:16.463Z,9.47
2022-11-16T09:18:44.235Z,9.47
2022-11-16T09:21:10.700Z,9.53
2022-11-16T09:23:37.126Z,9.45
2022-11-16T09:26:05.457Z,9.51
2022-11-16T09:28:32.398Z,9.49
2022-11-16T09:31:04.306Z,9.49
2022-11-16T09:33:31.547Z,9.45
2022-11-16T09:36:07.157Z,9.47
2022-11-16T09:39:13.959Z,9.49
2022-11-16T09:42:16.499Z,9.56
2022-11-16T09:45:04.579Z,9.46
2022-11-16T09:47:40.572Z,9.54
2022-11-16T09:50:19.076Z,9.63
2022-11-16T09:52:51.054Z,9.62
2022-11-16T09:55:24.027Z,9.68
2022-11-16T09:57:55.550Z,9.73
2022-11-16T10:00:24.216Z,9.67
2022-11-16T10:03:06.822Z,9.68
2022-11-16T10:05:43.550Z,9.73
2022-11-16T10:08:17.299Z,9.75
2022-11-16T10:10:51.124Z,9.79
2022-11-16T10:13:17.494Z,9.80
2022-11-16T10:16:06.685Z,9.75
2022-11-16T10:18:58.980Z,9.77
2022-11-16T10:21:37.295Z,9.82
2022-11-16T10:24:32.059Z,9.86
2022-11-16T10:27:07.228Z,9.91
2022-11-16T10:29:36.670Z,9.86
2022-11-16T10:32:22.069Z,9.88
2022-11-16T10:35:09.107Z,9.94
2022-11-16T10:37:41.023Z,9.96
2022-11-16T10:40:29.202Z,9.99
2022-11-16T10:43:20.710Z,10.05
2022-11-16T10:46:15.463Z,10.05
2022-11-16T10:48:54.275Z,10.10
2022-11-16T10:51:20.713Z,10.09
2022-11-16T10:53:47.161Z,10.09
2022-11-16T10:56:13.728Z,10.10
2022-11-16T10:58:53.804Z,10.18
2022-11-16T11:01:49.922Z,10.26
2022-11-16T11:04:24.550Z,10.33
2022-11-16T11:06:53.412Z,10.32
2022-11-16T11:09:27.185Z,10.32
2022-11-16T11:12:32.615Z,10.30
2022-11-16T11:15:12.567Z,10.31
2022-11-16T11:17:45.311Z,10.25
2022-11-16T11:20:17.934Z,10.30
2022-11-16T11:23:00.360Z,10.36
2022-11-16T11:25:34.309Z,10.39
2022-11-16T11:28:21.496Z,10.42
2022-11-16T11:30:56.457Z,10.45
2022-11-16T11:33:24.404Z,10.44
2022-11-16T11:35:58.470Z,10.47
2022-11-16T11:38:25.759Z,10.44
2022-11-16T11:40:57.703Z,10.42
2022-11-16T11:43:25.478Z,10.41
2022-11-16T11:46:04.434Z,10.41
2022-11-16T11:48:37.846Z,10.41
2022-11-16T11:51:27.268Z,10.40
2022-11-16T11:53:56.220Z,10.40
2022-11-16T11:56:24.041Z,10.37
2022-11-16T11:58:51.880Z,10.38
2022-11-16T12:01:36.374Z,10.37
2022-11-16T12:04:28.197Z,10.33
2022-11-16T12:07:12.870Z,10.31
2022-11-16T12:10:03.555Z,10.24
2022-11-16T12:12:48.206Z,10.18
2022-11-16T12:15:39.570Z,10.22
2022-11-16T12:18:20.122Z,10.24
2022-11-16T12:21:15.737Z,10.27
2022-11-16T12:24:00.726Z,10.27
2022-11-16T12:27:05.598Z,10.31
2022-11-16T12:30:00.032Z,10.33
2022-11-16T12:33:00.200Z,10.38
2022-11-16T12:35:51.659Z,10.46
2022-11-16T12:38:27.839Z,10.45
2022-11-16T12:41:10.286Z,10.50
2022-11-16T12:43:59.457Z,10.49
2022-11-16T12:46:49.972Z,10.56
2022-11-16T12:49:31.715Z,10.59
2022-11-16T12:52:36.807Z,10.56
2022-11-16T12:55:52.064Z,10.54
2022-11-16T12:58:47.212Z,10.52
2022-11-16T13:01:35.366Z,10.45
2022-11-16T13:04:09.817Z,10.43
2022-11-16T13:06:50.119Z,10.46
2022-11-16T13:09:21.588Z,10.48
2022-11-16T13:11:51.524Z,10.55
2022-11-16T13:14:23.002Z,10.63
2022-11-16T13:16:52.008Z,10.58
2022-11-16T13:19:18.777Z,10.60
2022-11-16T13:22:04.311Z,10.55
2022-11-16T13:24:53.656Z,10.57
2022-11-16T13:27:28.506Z,10.56
2022-11-16T13:30:13.729Z,10.57
2022-11-16T13:33:12.334Z,10.56
2022-11-16T13:35:39.453Z,10.54
2022-11-16T13:38:12.511Z,10.59
2022-11-16T13:40:40.025Z,10.56
2022-11-16T13:43:09.187Z,10.54
2022-11-16T13:45:49.777Z,10.53
2022-11-16T13:48:16.148Z,10.50
2022-11-16T13:50:49.928Z,10.53
2022-11-16T13:56:51.370Z,10.64
2022-11-16T13:59:26.256Z,10.67
2022-11-16T14:02:01.573Z,10.74
2022-11-16T14:04:49.643Z,10.80
2022-11-16T14:07:30.122Z,10.91
2022-11-16T14:09:56.698Z,10.97
2022-11-16T14:12:38.297Z,10.95
2022-11-16T14:15:16.832Z,10.99
2022-11-16T14:17:58.648Z,11.01
2022-11-16T14:20:52.938Z,10.96
2022-11-16T14:23:44.538Z,10.95
2022-11-16T14:26:21.051Z,10.95
2022-11-16T14:29:10.260Z,10.95
2022-11-16T14:31:57.597Z,10.94
2022-11-16T14:34:46.114Z,10.90
2022-11-16T14:37:24.423Z,10.87
2022-11-16T14:39:53.389Z,10.89
2022-11-16T14:42:25.858Z,10.90
2022-11-16T14:45:01.505Z,10.92
2022-11-16T14:47:30.543Z,10.92
2022-11-16T14:49:57.605Z,10.88
2022-11-16T14:52:38.466Z,10.88
2022-11-16T14:55:08.148Z,10.86
2022-11-16T14:57:35.187Z,10.85
2022-11-16T15:00:17.391Z,10.83
2022-11-16T15:02:52.058Z,10.78
2022-11-16T15:05:27.117Z,10.75
2022-11-16T15:07:57.377Z,10.74
2022-11-16T15:10:27.666Z,10.75
2022-11-16T15:12:55.742Z,10.75
2022-11-16T15:15:28.645Z,10.73
2022-11-16T15:18:08.173Z,10.75
2022-11-16T15:20:37.743Z,10.75
2022-11-16T15:23:12.175Z,10.76
2022-11-16T15:25:38.565Z,10.75
2022-11-16T15:28:13.490Z,10.76
2022-11-16T15:30:40.460Z,10.79
2022-11-16T15:33:16.233Z,10.75
2022-11-16T15:35:42.743Z,10.74
2022-11-16T15:38:25.951Z,10.77
2022-11-16T15:40:54.916Z,10.73
2022-11-16T15:43:31.267Z,10.72
2022-11-16T15:45:59.609Z,10.70
2022-11-16T15:48:27.778Z,10.69
2022-11-16T15:51:06.125Z,10.64
2022-11-16T15:53:43.042Z,10.67
2022-11-16T15:56:26.675Z,10.68
2022-11-16T15:58:55.332Z,10.67
2022-11-16T16:01:22.938Z,10.66
2022-11-16T16:04:06.804Z,10.63
2022-11-16T16:06:50.055Z,10.64
2022-11-16T16:09:25.732Z,10.63
2022-11-16T16:11:53.625Z,10.63
2022-11-16T16:14:28.434Z,10.66
2022-11-16T16:16:58.140Z,10.67
2022-11-16T16:19:36.064Z,10.68
2022-11-16T16:22:06.056Z,10.63
2022-11-16T16:24:46.280Z,10.62
2022-11-16T16:27:21.924Z,10.61
2022-11-16T16:29:50.112Z,10.58
2022-11-16T16:32:29.949Z,10.56
2022-11-16T16:34:58.794Z,10.55
2022-11-16T16:37:33.436Z,10.56
2022-11-16T16:40:00.428Z,10.56
2022-11-16T16:42:26.946Z,10.58
2022-11-16T16:44:53.669Z,10.60
2022-11-16T16:47:20.806Z,10.56
2022-11-16T16:49:48.400Z,10.56
2022-11-16T16:52:14.879Z,10.58
2022-11-16T16:54:41.658Z,10.55
2022-11-16T16:57:15.851Z,10.48
2022-11-16T16:59:45.111Z,10.44
2022-11-16T17:02:12.355Z,10.44
2022-11-16T17:04:38.998Z,10.41
2022-11-16T17:07:05.605Z,10.43
2022-11-16T17:09:32.087Z,10.46
2022-11-16T17:11:58.534Z,10.50
2022-11-16T17:14:25.020Z,10.53
2022-11-16T17:16:52.145Z,10.55
2022-11-16T17:19:19.773Z,10.51
2022-11-16T17:21:46.328Z,10.49
2022-11-16T17:24:12.869Z,10.50
2022-11-16T17:26:41.033Z,10.54
2022-11-16T17:29:07.493Z,10.55
2022-11-16T17:31:34.015Z,10.55
2022-11-16T17:34:00.487Z,10.55
2022-11-16T17:36:26.928Z,10.53
2022-11-16T17:38:53.653Z,10.55
2022-11-16T17:41:22.181Z,10.54
2022-11-16T17:43:52.984Z,10.56
2022-11-16T17:46:21.339Z,10.58
2022-11-16T17:48:48.331Z,10.58
2022-11-16T17:51:19.953Z,10.53
2022-11-16T17:53:46.856Z,10.50
2022-11-16T17:56:15.355Z,10.48
2022-11-16T17:58:41.901Z,10.47
2022-11-16T18:01:08.670Z,10.43
2022-11-16T18:03:36.439Z,10.35
2022-11-16T18:06:05.940Z,10.27
2022-11-16T18:08:33.368Z,10.24
2022-11-16T18:11:06.965Z,10.16
2022-11-16T18:13:34.639Z,10.12
2022-11-16T18:16:03.677Z,10.08
2022-11-16T18:18:30.160Z,9.95
2022-11-16T18:20:56.616Z,9.91
2022-11-16T18:23:23.049Z,9.85
2022-11-16T18:25:49.450Z,9.82
2022-11-16T18:28:18.460Z,9.84
2022-11-16T18:30:44.988Z,9.84
2022-11-16T18:33:11.484Z,9.80
2022-11-16T18:35:37.964Z,9.78
2022-11-16T18:38:05.527Z,9.78
2022-11-16T18:40:31.930Z,9.80
2022-11-16T18:42:58.396Z,9.81
2022-11-16T18:45:24.879Z,9.78
2022-11-16T18:47:51.345Z,9.74
2022-11-16T18:50:22.627Z,9.71
2022-11-16T18:52:52.199Z,9.63
2022-11-16T18:55:18.615Z,9.56
2022-11-16T18:57:45.080Z,9.49
2022-11-16T19:00:12.370Z,9.42
2022-11-16T19:02:38.856Z,9.46
2022-11-16T19:05:06.035Z,9.41
2022-11-16T19:07:32.641Z,9.39
2022-11-16T19:09:59.459Z,9.36
2022-11-16T19:12:25.859Z,9.31
2022-11-16T19:14:52.258Z,9.33
2022-11-16T19:17:20.287Z,9.35
2022-11-16T19:19:46.731Z,9.33
2022-11-16T19:22:13.158Z,9.32
2022-11-16T19:24:39.616Z,9.35
2022-11-16T19:27:06.126Z,9.32
2022-11-16T19:29:32.536Z,9.29
2022-11-16T19:31:58.998Z,9.19
2022-11-16T19:34:30.395Z,9.18
2022-11-16T19:36:59.503Z,9.16
2022-11-16T19:39:26.654Z,9.09
2022-11-16T19:41:53.102Z,8.99
2022-11-16T19:44:20.000Z,8.97
2022-11-16T19:46:46.417Z,8.97
2022-11-16T19:49:19.609Z,8.92
2022-11-16T19:51:46.475Z,8.89
2022-11-16T19:54:14.817Z,8.79
2022-11-16T19:56:42.349Z,8.78
2022-11-16T19:59:08.979Z,8.86
2022-11-16T20:01:35.992Z,8.83
2022-11-16T20:04:03.584Z,8.74
2022-11-16T20:06:38.564Z,8.67
2022-11-16T20:09:09.522Z,8.55
2022-11-16T20:11:38.117Z,8.49
2022-11-16T20:14:07.291Z,8.56
2022-11-16T20:16:39.000Z,8.59
2022-11-16T20:19:07.456Z,8.52
2022-11-16T20:21:36.981Z,8.55
2022-11-16T20:24:07.114Z,8.51
2022-11-16T20:26:35.378Z,8.38
2022-11-16T20:29:02.140Z,8.26
2022-11-16T20:31:31.169Z,8.26
2022-11-16T20:34:02.601Z,8.21
2022-11-16T20:36:30.183Z,8.11
2022-11-16T20:38:57.961Z,8.18
2022-11-16T20:41:26.717Z,8.15
2022-11-16T20:43:55.229Z,8.19
2022-11-16T20:46:23.517Z,8.14
2022-11-16T20:48:50.218Z,8.03
2022-11-16T20:51:18.825Z,8.06
2022-11-16T20:53:46.984Z,8.10
2022-11-16T20:56:14.066Z,8.09
2022-11-16T20:58:41.332Z,8.11
2022-11-16T21:01:13.505Z,8.09
2022-11-16T21:03:40.398Z,8.00
2022-11-16T21:06:09.702Z,7.93
2022-11-16T21:08:37.368Z,7.78
2022-11-16T21:11:26.027Z,7.78
2022-11-16T21:14:11.513Z,7.75
2022-11-16T21:16:38.694Z,7.81
2022-11-16T21:19:05.894Z,7.96
2022-11-16T21:21:32.487Z,8.06
2022-11-16T21:23:59.540Z,8.04
2022-11-16T21:26:31.070Z,8.04
2022-11-16T21:28:58.812Z,8.13
2022-11-16T21:31:30.818Z,8.12
2022-11-16T21:33:58.045Z,8.02
2022-11-16T21:36:26.285Z,8.01
2022-11-16T21:38:53.064Z,8.02
2022-11-16T21:41:21.109Z,8.01
2022-11-16T21:43:47.943Z,7.93
2022-11-16T21:46:17.266Z,7.92
2022-11-16T21:48:44.503Z,7.85
2022-11-16T21:51:13.405Z,7.81
2022-11-16T21:53:40.064Z,7.81
2022-11-16T21:56:08.181Z,7.84
2022-11-16T21:58:34.635Z,7.84
2022-11-16T22:01:02.415Z,7.80
2022-11-16T22:03:31.437Z,7.83
2022-11-16T22:06:18.823Z,7.88
2022-11-16T22:08:46.011Z,7.84
2022-11-16T22:11:13.682Z,7.88
2022-11-16T22:13:40.422Z,7.84
2022-11-16T22:16:12.400Z,7.83
2022-11-16T22:18:39.140Z,7.69
2022-11-16T22:21:06.194Z,7.66
2022-11-16T22:23:33.418Z,7.58
2022-11-16T22:26:05.850Z,7.59
2022-11-16T22:28:33.587Z,7.60
2022-11-16T22:31:01.943Z,7.55
2022-11-16T22:33:28.750Z,7.52
2022-11-16T22:35:55.468Z,7.48
2022-11-16T22:38:21.884Z,7.48
2022-11-16T22:40:50.531Z,7.51
2022-11-16T22:43:17.470Z,7.50
2022-11-16T22:45:43.879Z,7.52
2022-11-16T22:48:10.343Z,7.57
2022-11-16T22:50:36.781Z,7.53
2022-11-16T22:53:03.195Z,7.53
2022-11-16T22:55:29.644Z,7.53
2022-11-16T22:57:56.119Z,7.39
2022-11-16T23:00:23.705Z,7.39
2022-11-16T23:02:51.821Z,7.40
2022-11-16T23:05:18.275Z,7.42
2022-11-16T23:07:44.738Z,7.38
2022-11-16T23:10:11.172Z,7.32
2022-11-16T23:12:56.128Z,7.25
2022-11-16T23:15:40.785Z,7.13
2022-11-16T23:18:07.251Z,7.15
2022-11-16T23:20:52.847Z,7.17
2022-11-16T23:23:38.613Z,7.17
2022-11-16T23:26:30.419Z,7.16
2022-11-16T23:28:56.928Z,7.09
2022-11-16T23:31:23.508Z,7.10
2022-11-16T23:33:49.924Z,7.14
2022-11-16T23:36:16.404Z,7.13
2022-11-16T23:38:42.858Z,7.13
2022-11-16T23:41:28.197Z,7.15
2022-11-16T23:43:57.813Z,7.10
2022-11-16T23:46:28.619Z,7.15
2022-11-16T23:48:55.385Z,7.16
2022-11-16T23:51:23.340Z,7.17
2022-11-16T23:53:54.289Z,7.18
2022-11-16T23:56:21.666Z,7.09
2022-11-16T23:58:48.492Z,7.13
